createdAt,value
2023-02-28T00:02:27.193Z,4.40
2023-02-28T00:05:35.618Z,6.60
2023-02-28T00:08:42.360Z,5.83
2023-02-28T00:11:50.542Z,5.67
2023-02-28T00:14:57.049Z,5.63
2023-02-28T00:18:04.336Z,4.50
2023-02-28T00:21:12.207Z,8.07
2023-02-28T00:24:18.259Z,7.17
2023-02-28T00:27:24.799Z,5.83
2023-02-28T00:30:31.186Z,6.97
2023-02-28T00:33:37.683Z,6.67
2023-02-28T00:36:47.348Z,5.17
2023-02-28T00:39:53.734Z,5.80
2023-02-28T00:43:00.025Z,5.00
2023-02-28T00:46:07.044Z,6.00
2023-02-28T00:49:12.931Z,5.93
2023-02-28T00:52:20.176Z,5.97
2023-02-28T00:55:26.230Z,6.17
2023-02-28T00:58:32.445Z,5.30
2023-02-28T01:01:38.338Z,6.13
2023-02-28T01:04:44.656Z,4.97
2023-02-28T01:07:52.340Z,5.30
2023-02-28T01:10:59.071Z,5.50
2023-02-28T01:14:05.967Z,5.67
2023-02-28T01:17:12.601Z,5.60
2023-02-28T01:20:18.838Z,6.33
2023-02-28T01:23:26.677Z,5.43
2023-02-28T01:26:33.684Z,3.77
2023-02-28T01:29:39.849Z,3.70
2023-02-28T01:32:46.192Z,3.13
2023-02-28T01:35:59.694Z,3.10
2023-02-28T01:39:07.325Z,2.83
2023-02-28T01:42:13.642Z,2.17
2023-02-28T01:45:26.016Z,3.50
2023-02-28T01:48:37.118Z,3.13
2023-02-28T01:51:47.540Z,2.73
2023-02-28T01:54:58.859Z,3.47
2023-02-28T01:58:08.456Z,3.27
2023-02-28T02:01:22.756Z,3.83
2023-02-28T02:04:35.217Z,2.37
2023-02-28T02:07:43.536Z,2.67
2023-02-28T02:10:55.227Z,2.67
2023-02-28T02:14:34.269Z,4.73
2023-02-28T02:17:43.982Z,3.17
2023-02-28T02:21:31.401Z,3.97
2023-02-28T02:25:14.338Z,3.97
2023-02-28T02:28:42.756Z,5.93
2023-02-28T02:32:11.721Z,6.20
2023-02-28T02:35:27.648Z,4.57
2023-02-28T02:38:37.626Z,3.80
2023-02-28T02:41:49.241Z,3.00
2023-02-28T02:45:03.500Z,2.93
2023-02-28T02:48:12.811Z,3.17
2023-02-28T02:51:23.480Z,4.57
2023-02-28T02:54:33.723Z,4.53
2023-02-28T02:57:45.481Z,6.70
2023-02-28T03:00:55.696Z,4.10
2023-02-28T03:04:05.232Z,4.37
2023-02-28T03:07:12.887Z,4.03
2023-02-28T03:10:32.401Z,2.70
2023-02-28T03:13:57.359Z,4.03
2023-02-28T03:17:20.801Z,2.80
2023-02-28T03:20:40.550Z,2.97
2023-02-28T03:23:58.426Z,3.60
2023-02-28T03:27:11.080Z,3.30
2023-02-28T03:30:26.328Z,9.27
2023-02-28T03:33:36.530Z,5.53
2023-02-28T03:36:49.839Z,5.73
2023-02-28T03:40:02.227Z,4.90
2023-02-28T03:43:15.054Z,6.20
2023-02-28T03:46:25.100Z,4.37
2023-02-28T03:49:37.243Z,4.93
2023-02-28T03:52:49.957Z,5.40
2023-02-28T03:56:01.719Z,8.97
2023-02-28T03:59:13.208Z,8.97
2023-02-28T04:02:19.734Z,7.40
2023-02-28T04:05:26.319Z,7.93
2023-02-28T04:08:32.485Z,8.07
2023-02-28T04:11:42.126Z,16.93
2023-02-28T04:14:48.357Z,12.83
2023-02-28T04:17:54.933Z,11.63
2023-02-28T04:21:03.012Z,12.70
2023-02-28T04:24:15.160Z,11.60
2023-02-28T04:27:23.212Z,21.20
2023-02-28T04:30:30.822Z,9.60
2023-02-28T04:33:37.366Z,9.40
2023-02-28T04:36:43.710Z,6.00
2023-02-28T04:39:50.032Z,6.87
2023-02-28T04:42:57.811Z,4.97
2023-02-28T04:46:06.760Z,7.03
2023-02-28T04:49:14.353Z,8.40
2023-02-28T04:52:20.779Z,4.80
2023-02-28T04:55:27.249Z,5.23
2023-02-28T04:58:35.433Z,14.27
2023-02-28T05:01:41.872Z,13.23
2023-02-28T05:04:48.395Z,14.17
2023-02-28T05:07:54.742Z,11.97
2023-02-28T05:11:01.916Z,10.63
2023-02-28T05:14:13.224Z,12.73
2023-02-28T05:17:19.648Z,10.73
2023-02-28T05:20:26.396Z,28.37
2023-02-28T05:23:33.031Z,30.13
2023-02-28T05:26:41.225Z,13.00
2023-02-28T05:29:49.203Z,13.63
2023-02-28T05:32:55.424Z,11.83
2023-02-28T05:36:02.281Z,13.80
2023-02-28T05:39:13.644Z,20.43
2023-02-28T05:42:19.971Z,19.90
2023-02-28T05:45:28.017Z,18.53
2023-02-28T05:48:35.221Z,17.87
2023-02-28T05:51:41.864Z,15.17
2023-02-28T05:54:49.032Z,8.47
2023-02-28T05:57:55.393Z,7.17
2023-02-28T06:01:21.346Z,7.10
2023-02-28T06:04:31.997Z,13.13
2023-02-28T06:07:38.645Z,26.23
2023-02-28T06:10:44.707Z,8.37
2023-02-28T06:13:51.156Z,8.60
2023-02-28T06:16:59.546Z,6.77
2023-02-28T06:20:06.924Z,7.47
2023-02-28T06:23:13.302Z,11.70
2023-02-28T06:26:19.841Z,12.80
2023-02-28T06:29:26.280Z,8.50
2023-02-28T06:32:34.111Z,7.07
2023-02-28T06:35:40.726Z,5.80
2023-02-28T06:38:49.430Z,6.13
2023-02-28T06:41:56.625Z,6.20
2023-02-28T06:45:04.542Z,9.43
2023-02-28T06:48:12.703Z,13.60
2023-02-28T06:51:21.410Z,17.93
2023-02-28T06:54:28.351Z,9.47
2023-02-28T06:57:36.696Z,14.37
2023-02-28T07:00:43.414Z,13.27
2023-02-28T07:03:53.452Z,12.70
2023-02-28T07:07:00.008Z,14.67
2023-02-28T07:10:07.355Z,9.27
2023-02-28T07:13:13.966Z,8.53
2023-02-28T07:16:20.978Z,9.40
2023-02-28T07:19:29.193Z,17.73
2023-02-28T07:22:35.564Z,13.37
2023-02-28T07:25:41.979Z,9.20
2023-02-28T07:28:50.241Z,9.70
2023-02-28T07:31:56.622Z,9.07
2023-02-28T07:35:04.266Z,10.63
2023-02-28T07:38:11.208Z,8.57
2023-02-28T07:41:17.963Z,7.27
2023-02-28T07:44:24.210Z,6.10
2023-02-28T07:47:31.524Z,7.40
2023-02-28T07:50:39.347Z,10.33
2023-02-28T07:53:45.657Z,9.47
2023-02-28T07:56:51.755Z,7.83
2023-02-28T07:59:58.040Z,9.63
2023-02-28T08:03:04.343Z,8.30
2023-02-28T08:06:19.213Z,10.37
2023-02-28T08:09:25.578Z,9.43
2023-02-28T08:12:32.002Z,11.77
2023-02-28T08:15:38.662Z,10.87
2023-02-28T08:18:45.163Z,14.57
2023-02-28T08:21:53.186Z,14.27
2023-02-28T08:24:59.730Z,14.23
2023-02-28T08:28:06.793Z,13.97
2023-02-28T08:31:15.720Z,12.53
2023-02-28T08:34:22.273Z,20.93
2023-02-28T08:37:29.991Z,10.17
2023-02-28T08:40:36.730Z,9.90
2023-02-28T08:43:43.765Z,11.10
2023-02-28T08:46:50.200Z,9.73
2023-02-28T08:49:56.407Z,11.17
2023-02-28T08:53:03.991Z,13.33
2023-02-28T08:56:11.755Z,11.27
2023-02-28T08:59:17.862Z,8.37
2023-02-28T09:02:24.101Z,9.43
2023-02-28T09:05:31.056Z,8.40
2023-02-28T09:08:38.983Z,5.90
2023-02-28T09:11:45.021Z,5.77
2023-02-28T09:14:51.072Z,4.23
2023-02-28T09:17:57.365Z,3.90
2023-02-28T09:21:05.939Z,7.17
2023-02-28T09:24:15.491Z,9.93
2023-02-28T09:27:21.488Z,5.80
2023-02-28T09:30:27.893Z,6.20
2023-02-28T09:33:35.392Z,5.57
2023-02-28T09:36:45.619Z,5.77
2023-02-28T09:39:54.182Z,11.80
2023-02-28T09:43:02.369Z,7.37
2023-02-28T09:46:16.847Z,6.03
2023-02-28T09:49:27.781Z,5.93
2023-02-28T09:52:36.055Z,4.97
2023-02-28T09:55:47.476Z,5.20
2023-02-28T09:58:57.363Z,4.30
2023-02-28T10:02:12.926Z,5.87
2023-02-28T10:05:22.287Z,6.50
2023-02-28T10:08:33.738Z,9.57
2023-02-28T10:11:43.903Z,9.37
2023-02-28T10:14:54.025Z,9.47
2023-02-28T10:18:09.026Z,8.20
2023-02-28T10:21:23.228Z,7.87
2023-02-28T10:24:34.774Z,8.17
2023-02-28T10:27:42.802Z,9.70
2023-02-28T10:30:51.189Z,8.63
2023-02-28T10:33:58.008Z,9.57
2023-02-28T10:37:09.362Z,10.20
2023-02-28T10:40:30.558Z,46.47
2023-02-28T10:43:39.408Z,10.90
2023-02-28T10:46:45.772Z,48.13
2023-02-28T10:49:54.180Z,13.93
2023-02-28T10:53:11.204Z,11.87
2023-02-28T10:56:22.347Z,12.33
2023-02-28T10:59:32.758Z,8.27
2023-02-28T11:02:58.206Z,9.53
2023-02-28T11:06:11.165Z,7.90
2023-02-28T11:09:27.313Z,9.33
2023-02-28T11:12:50.857Z,8.23
2023-02-28T11:16:03.364Z,9.50
2023-02-28T11:19:21.508Z,9.30
2023-02-28T11:22:33.785Z,9.50
2023-02-28T11:25:41.313Z,14.47
2023-02-28T11:28:47.585Z,8.53
2023-02-28T11:32:15.848Z,9.33
2023-02-28T11:35:29.005Z,8.13
2023-02-28T11:38:38.321Z,7.47
2023-02-28T11:42:02.865Z,6.83
2023-02-28T11:45:31.800Z,18.47
2023-02-28T11:48:49.616Z,10.37
2023-02-28T11:52:01.422Z,8.83
2023-02-28T11:55:19.320Z,7.93
2023-02-28T11:58:41.782Z,7.40
2023-02-28T12:02:18.773Z,10.87
2023-02-28T12:05:36.027Z,13.43
2023-02-28T12:08:53.584Z,13.07
2023-02-28T12:12:06.970Z,14.73
2023-02-28T12:15:36.355Z,15.77
2023-02-28T12:18:57.833Z,12.53
2023-02-28T12:22:30.568Z,24.43
2023-02-28T12:25:57.099Z,14.17
2023-02-28T12:29:12.958Z,21.77
2023-02-28T12:32:24.078Z,20.63
2023-02-28T12:35:37.007Z,18.13
2023-02-28T12:38:49.922Z,14.97
2023-02-28T12:42:03.340Z,10.03
2023-02-28T12:45:15.152Z,8.37
2023-02-28T12:48:28.318Z,7.20
2023-02-28T12:51:37.436Z,7.97
2023-02-28T12:54:51.831Z,8.23
2023-02-28T12:58:07.875Z,13.03
2023-02-28T13:01:44.759Z,12.23
2023-02-28T13:05:52.372Z,9.77
2023-02-28T13:09:17.254Z,7.40
2023-02-28T13:12:26.267Z,5.17
2023-02-28T13:15:36.278Z,6.17
2023-02-28T13:18:46.804Z,8.40
2023-02-28T13:21:54.667Z,4.33
2023-02-28T13:25:01.404Z,3.83
2023-02-28T13:28:15.462Z,3.57
2023-02-28T13:31:22.350Z,17.40
2023-02-28T13:34:28.890Z,14.00
2023-02-28T13:37:39.366Z,10.80
2023-02-28T13:40:45.630Z,16.03
2023-02-28T13:44:08.153Z,11.27
2023-02-28T13:47:30.051Z,4.00
2023-02-28T13:50:39.091Z,5.00
2023-02-28T13:54:00.389Z,7.13
2023-02-28T13:57:21.853Z,6.23
2023-02-28T14:00:44.623Z,9.50
2023-02-28T14:04:12.042Z,7.43
2023-02-28T14:07:25.757Z,7.00
2023-02-28T14:10:34.950Z,7.47
2023-02-28T14:13:48.010Z,9.13
2023-02-28T14:16:56.922Z,6.93
2023-02-28T14:20:04.713Z,9.40
2023-02-28T14:23:18.694Z,9.00
2023-02-28T14:26:59.882Z,10.73
2023-02-28T14:30:17.937Z,12.60
2023-02-28T14:33:34.233Z,9.20
2023-02-28T14:36:43.553Z,12.90
2023-02-28T14:39:50.828Z,13.67
2023-02-28T14:43:03.709Z,20.17
2023-02-28T14:46:09.799Z,23.90
2023-02-28T14:49:21.897Z,20.63
2023-02-28T14:52:30.945Z,18.70
2023-02-28T14:55:38.342Z,12.83
2023-02-28T14:58:54.189Z,11.87
2023-02-28T15:02:21.477Z,10.67
2023-02-28T15:05:31.773Z,9.30
2023-02-28T15:08:38.058Z,8.27
2023-02-28T15:11:48.139Z,7.67
2023-02-28T15:14:54.664Z,6.33
2023-02-28T15:18:04.653Z,6.40
2023-02-28T15:21:17.779Z,5.87
2023-02-28T15:24:32.846Z,4.50
2023-02-28T15:27:44.853Z,8.10
2023-02-28T15:31:00.120Z,12.90
2023-02-28T15:34:08.460Z,13.03
2023-02-28T15:37:39.831Z,21.80
2023-02-28T15:40:54.848Z,12.43
2023-02-28T15:44:19.350Z,7.83
2023-02-28T15:47:28.621Z,6.63
2023-02-28T15:50:35.105Z,6.93
2023-02-28T15:53:50.071Z,6.83
2023-02-28T15:56:58.726Z,6.80
2023-02-28T16:00:06.928Z,7.03
2023-02-28T16:03:25.997Z,8.17
2023-02-28T16:06:38.424Z,5.83
2023-02-28T16:09:45.806Z,4.40
2023-02-28T16:12:52.096Z,5.57
2023-02-28T16:15:57.922Z,6.57
2023-02-28T16:19:04.188Z,5.30
2023-02-28T16:22:11.265Z,5.73
2023-02-28T16:25:20.813Z,6.73
2023-02-28T16:28:33.819Z,9.43
2023-02-28T16:31:40.696Z,10.63
2023-02-28T16:34:47.049Z,7.57
2023-02-28T16:37:54.086Z,7.13
2023-02-28T16:41:02.914Z,9.80
2023-02-28T16:44:15.826Z,8.73
2023-02-28T16:47:21.871Z,8.40
2023-02-28T16:50:30.066Z,7.30
2023-02-28T16:53:36.236Z,8.40
2023-02-28T16:56:47.074Z,7.90
2023-02-28T16:59:53.412Z,11.57
2023-02-28T17:03:00.523Z,11.60
2023-02-28T17:06:08.433Z,9.27
2023-02-28T17:09:20.322Z,9.70
2023-02-28T17:12:28.476Z,11.77
2023-02-28T17:15:34.450Z,20.70
2023-02-28T17:18:40.457Z,22.73
2023-02-28T17:21:47.157Z,13.20
2023-02-28T17:24:52.961Z,14.60
2023-02-28T17:28:00.199Z,16.37
2023-02-28T17:31:07.071Z,16.07
2023-02-28T17:34:19.132Z,20.73
2023-02-28T17:37:25.184Z,23.63
2023-02-28T17:40:31.177Z,23.17
2023-02-28T17:43:38.967Z,20.80
2023-02-28T17:46:45.945Z,23.10
2023-02-28T17:49:52.145Z,26.07
2023-02-28T17:52:58.624Z,25.90
2023-02-28T17:56:05.397Z,23.53
2023-02-28T17:59:14.397Z,18.67
2023-02-28T18:02:20.721Z,17.10
2023-02-28T18:05:27.401Z,20.17
2023-02-28T18:08:36.346Z,19.97
2023-02-28T18:11:49.151Z,20.63
2023-02-28T18:14:56.964Z,18.83
2023-02-28T18:18:03.471Z,16.70
2023-02-28T18:21:10.933Z,18.10
2023-02-28T18:24:17.681Z,18.90
2023-02-28T18:27:24.040Z,14.77
2023-02-28T18:30:33.569Z,14.23
2023-02-28T18:33:39.844Z,12.23
2023-02-28T18:36:47.354Z,12.47
2023-02-28T18:39:54.239Z,12.40
2023-02-28T18:43:00.983Z,10.90
2023-02-28T18:46:11.021Z,7.30
2023-02-28T18:49:17.356Z,7.37
2023-02-28T18:52:23.653Z,7.70
2023-02-28T18:55:29.674Z,6.53
2023-02-28T18:58:36.688Z,9.23
2023-02-28T19:01:46.744Z,9.70
2023-02-28T19:04:53.387Z,18.20
2023-02-28T19:07:59.810Z,18.00
2023-02-28T19:11:09.361Z,14.67
2023-02-28T19:14:15.596Z,13.73
2023-02-28T19:17:23.294Z,12.70
2023-02-28T19:20:29.516Z,17.50
2023-02-28T19:23:36.204Z,15.27
2023-02-28T19:26:42.717Z,12.93
2023-02-28T19:29:50.031Z,9.17
2023-02-28T19:32:57.719Z,12.67
2023-02-28T19:36:04.096Z,14.03
2023-02-28T19:39:10.081Z,13.40
2023-02-28T19:42:17.906Z,15.47
2023-02-28T19:45:24.466Z,17.00
2023-02-28T19:48:32.076Z,16.97
2023-02-28T19:51:38.494Z,17.17
2023-02-28T19:54:44.570Z,8.83
2023-02-28T19:57:50.542Z,23.63
2023-02-28T20:00:56.945Z,17.20
2023-02-28T20:04:05.967Z,14.47
2023-02-28T20:07:12.239Z,10.90
2023-02-28T20:10:18.846Z,10.13
2023-02-28T20:13:28.106Z,7.77
2023-02-28T20:16:34.434Z,12.17
2023-02-28T20:19:41.754Z,11.17
2023-02-28T20:22:48.161Z,10.40
2023-02-28T20:25:54.277Z,13.63
2023-02-28T20:29:00.626Z,11.83
2023-02-28T20:32:08.269Z,10.17
2023-02-28T20:35:15.963Z,13.50
2023-02-28T20:38:22.427Z,18.73
2023-02-28T20:41:28.846Z,19.67
2023-02-28T20:44:35.123Z,8.63
2023-02-28T20:47:42.568Z,7.50
2023-02-28T20:50:55.256Z,4.13
2023-02-28T20:54:02.368Z,4.73
2023-02-28T20:57:09.488Z,4.57
2023-02-28T21:00:19.582Z,2.07
2023-02-28T21:03:25.507Z,4.50
2023-02-28T21:06:35.525Z,4.87
2023-02-28T21:09:41.446Z,7.20
2023-02-28T21:12:50.801Z,8.80
2023-02-28T21:15:57.268Z,8.77
2023-02-28T21:19:05.028Z,7.27
2023-02-28T21:22:14.063Z,7.27
2023-02-28T21:25:20.238Z,7.47
2023-02-28T21:28:26.261Z,6.13
2023-02-28T21:31:34.831Z,6.40
2023-02-28T21:34:41.630Z,4.97
2023-02-28T21:37:49.361Z,9.13
2023-02-28T21:40:55.338Z,7.10
2023-02-28T21:44:01.548Z,3.37
2023-02-28T21:47:07.750Z,3.20
2023-02-28T21:50:13.883Z,2.37
2023-02-28T21:53:22.041Z,6.87
2023-02-28T21:56:31.239Z,4.03
2023-02-28T21:59:37.775Z,2.20
2023-02-28T22:02:44.148Z,2.70
2023-02-28T22:05:50.257Z,1.80
2023-02-28T22:08:59.284Z,5.37
2023-02-28T22:12:08.544Z,4.23
2023-02-28T22:15:14.820Z,2.60
2023-02-28T22:18:21.119Z,4.13
2023-02-28T22:21:27.583Z,1.93
2023-02-28T22:24:35.440Z,4.57
2023-02-28T22:27:41.943Z,1.43
2023-02-28T22:30:49.152Z,1.90
2023-02-28T22:33:57.624Z,4.60
2023-02-28T22:37:04.085Z,8.47
2023-02-28T22:40:13.392Z,5.83
2023-02-28T22:43:19.406Z,5.50
2023-02-28T22:46:27.708Z,9.57
2023-02-28T22:49:33.909Z,5.73
2023-02-28T22:52:41.354Z,5.63
2023-02-28T22:55:56.130Z,3.83
2023-02-28T22:59:03.128Z,9.20
2023-02-28T23:02:09.188Z,7.80
2023-02-28T23:05:16.170Z,11.27
2023-02-28T23:08:23.386Z,6.80
2023-02-28T23:11:33.626Z,3.23
2023-02-28T23:14:39.903Z,3.03
2023-02-28T23:17:48.590Z,2.40
2023-02-28T23:20:57.545Z,4.70
2023-02-28T23:24:04.956Z,3.20
2023-02-28T23:27:12.662Z,2.90
2023-02-28T23:30:19.211Z,2.77
2023-02-28T23:33:26.479Z,2.67
2023-02-28T23:36:33.526Z,2.53
2023-02-28T23:39:41.561Z,2.00
2023-02-28T23:42:49.508Z,2.93
2023-02-28T23:45:58.713Z,3.23
2023-02-28T23:49:04.874Z,3.37
2023-02-28T23:52:11.085Z,4.60
2023-02-28T23:55:17.623Z,5.00
2023-02-28T23:58:25.698Z,3.80
